Time;durP1;ratioP1;P1;durP2;ratioP2;P2;SDS_P1;SDS_P2;PMS_P1;PMS_P2;Temp;Humidity;BMP_temperature;BMP_pressure;BME280_temperature;BME280_humidity;BME280_pressure;Samples;Min_cycle;Max_cycle;Signal;HPM_P1;HPM_P2
2021/12/12 00:00:58;;;;;;;6.47;5.72;;;4.30;99.90;;;;;;5010430;28;20285;-74
2021/12/12 00:03:36;;;;;;;7.15;6.45;;;4.30;99.90;;;;;;4996599;28;20284;-75
2021/12/12 00:06:06;;;;;;;6.88;5.50;;;4.20;99.90;;;;;;5006657;28;20233;-75
2021/12/12 00:08:33;;;;;;;9.50;5.82;;;4.20;99.90;;;;;;5003128;28;20229;-74
2021/12/12 00:11:04;;;;;;;6.43;5.20;;;4.20;99.90;;;;;;4991161;28;20674;-74
2021/12/12 00:13:38;;;;;;;8.70;5.35;;;4.20;99.90;;;;;;4998935;28;20233;-75
2021/12/12 00:16:05;;;;;;;6.43;4.60;;;4.10;99.90;;;;;;5006037;28;20206;-75
2021/12/12 00:18:32;;;;;;;8.32;4.65;;;4.10;99.90;;;;;;5010737;28;20654;-75
2021/12/12 00:21:00;;;;;;;8.30;4.68;;;4.10;99.90;;;;;;5005183;28;20194;-74
2021/12/12 00:23:27;;;;;;;6.10;4.32;;;4.10;99.90;;;;;;4991773;28;20550;-75
2021/12/12 00:25:58;;;;;;;5.15;4.60;;;4.10;99.90;;;;;;4994150;28;20294;-75
2021/12/12 00:28:26;;;;;;;7.60;4.03;;;4.10;99.90;;;;;;5013813;28;20298;-75
2021/12/12 00:31:00;;;;;;;6.50;4.30;;;4.10;99.90;;;;;;5005515;28;20225;-75
2021/12/12 00:33:28;;;;;;;4.85;3.85;;;4.00;99.90;;;;;;4998694;28;20226;-75
2021/12/12 00:35:55;;;;;;;5.72;4.40;;;4.00;99.90;;;;;;4994621;28;20230;-74
2021/12/12 00:38:26;;;;;;;7.40;4.78;;;4.00;99.90;;;;;;4995846;28;20209;-75
2021/12/12 00:40:56;;;;;;;7.30;3.95;;;4.00;99.90;;;;;;4997141;28;20214;-74
2021/12/12 00:43:27;;;;;;;6.55;3.63;;;3.90;99.90;;;;;;4995675;28;20225;-75
2021/12/12 00:45:59;;;;;;;4.63;3.65;;;3.90;99.90;;;;;;4999097;28;20195;-74
2021/12/12 00:48:29;;;;;;;6.32;3.83;;;3.90;99.90;;;;;;5009134;28;20296;-74
2021/12/12 00:50:57;;;;;;;5.15;3.63;;;3.90;99.90;;;;;;5013828;28;20658;-74
2021/12/12 00:53:24;;;;;;;5.95;3.75;;;3.80;99.90;;;;;;5008645;28;20237;-75
2021/12/12 00:55:53;;;;;;;5.35;4.10;;;3.80;99.90;;;;;;5002574;28;20199;-75
2021/12/12 00:58:21;;;;;;;5.13;3.95;;;3.70;99.90;;;;;;5010967;28;20199;-75
2021/12/12 01:00:51;;;;;;;4.53;4.00;;;3.70;99.90;;;;;;5006780;28;20191;-74
2021/12/12 01:03:40;;;;;;;5.30;3.95;;;3.80;99.90;;;;;;4997096;28;20222;-75
2021/12/12 01:06:11;;;;;;;7.15;3.80;;;3.90;99.90;;;;;;5002642;28;20193;-74
2021/12/12 01:08:39;;;;;;;5.90;3.90;;;3.90;99.90;;;;;;5013542;28;20324;-74
2021/12/12 01:11:11;;;;;;;5.90;3.90;;;3.90;99.90;;;;;;4998621;28;20201;-75
2021/12/12 01:13:39;;;;;;;6.38;3.25;;;4.00;99.90;;;;;;5004610;28;20214;-75
2021/12/12 01:16:11;;;;;;;4.65;3.80;;;4.00;99.90;;;;;;5009136;28;20194;-74
2021/12/12 01:18:43;;;;;;;4.18;3.22;;;3.90;99.90;;;;;;5000594;28;20198;-74
2021/12/12 01:21:14;;;;;;;5.75;3.50;;;3.90;99.90;;;;;;5011821;28;20255;-74
2021/12/12 01:23:48;;;;;;;5.97;3.80;;;3.90;99.90;;;;;;5003711;28;20223;-74
2021/12/12 01:26:16;;;;;;;7.38;3.92;;;3.80;99.90;;;;;;4999111;28;20217;-74
2021/12/12 01:28:46;;;;;;;12.07;4.80;;;3.70;99.90;;;;;;5009103;28;20309;-74
2021/12/12 01:31:23;;;;;;;7.15;4.88;;;3.70;99.90;;;;;;5012552;28;20708;-74
2021/12/12 01:33:58;;;;;;;4.60;4.20;;;3.60;99.90;;;;;;4995102;28;20214;-74
2021/12/12 01:36:30;;;;;;;6.63;5.15;;;3.60;99.90;;;;;;5002575;28;20281;-75
2021/12/12 01:38:58;;;;;;;5.13;4.50;;;3.60;99.90;;;;;;4992953;28;20207;-74
2021/12/12 01:41:30;;;;;;;5.93;4.13;;;3.60;99.90;;;;;;4994295;28;20222;-74
2021/12/12 01:44:01;;;;;;;7.40;5.03;;;3.60;99.90;;;;;;4996481;28;20302;-75
2021/12/12 01:46:31;;;;;;;7.75;4.82;;;3.60;99.90;;;;;;4994620;28;20219;-74
2021/12/12 01:49:03;;;;;;;6.40;4.97;;;3.70;99.90;;;;;;4996656;28;20230;-74
2021/12/12 01:51:31;;;;;;;7.03;4.85;;;3.60;99.90;;;;;;4999971;28;20198;-74
2021/12/12 01:54:02;;;;;;;5.38;4.30;;;3.70;99.90;;;;;;4995362;28;20223;-74
2021/12/12 01:56:33;;;;;;;6.25;4.20;;;3.70;99.90;;;;;;5011434;28;20595;-73
2021/12/12 01:59:04;;;;;;;5.25;3.90;;;3.60;99.90;;;;;;5012795;28;20217;-74
2021/12/12 02:01:36;;;;;;;6.38;3.22;;;3.60;99.90;;;;;;4996518;28;20685;-74
2021/12/12 02:04:13;;;;;;;3.80;2.47;;;3.60;99.90;;;;;;5004585;28;20223;-75
2021/12/12 02:06:44;;;;;;;4.05;2.40;;;3.60;99.90;;;;;;5012292;28;20199;-75
2021/12/12 02:09:13;;;;;;;2.35;2.00;;;3.80;99.90;;;;;;5005879;28;20227;-74
2021/12/12 02:11:42;;;;;;;5.95;2.00;;;3.80;99.90;;;;;;4994129;28;20196;-74
2021/12/12 02:14:12;;;;;;;2.92;1.90;;;3.80;99.90;;;;;;5000477;28;20558;-74
2021/12/12 02:16:46;;;;;;;2.70;2.15;;;3.80;99.90;;;;;;4999305;28;20762;-74
2021/12/12 02:19:16;;;;;;;3.50;2.58;;;3.80;99.90;;;;;;5005535;28;20221;-74
2021/12/12 02:21:58;;;;;;;4.20;2.45;;;3.90;99.90;;;;;;4993749;28;20199;-74
2021/12/12 02:35:43;;;;;;;5.45;2.75;;;4.10;99.90;;;;;;4990319;28;20338;-74
2021/12/12 02:38:13;;;;;;;5.03;2.45;;;4.00;99.90;;;;;;5011531;28;20293;-74
2021/12/12 02:40:45;;;;;;;4.13;3.10;;;3.90;99.90;;;;;;4996657;28;20294;-74
2021/12/12 02:43:14;;;;;;;4.57;2.63;;;3.90;99.90;;;;;;4998569;28;20232;-74
2021/12/12 02:45:43;;;;;;;3.42;2.83;;;3.90;99.90;;;;;;5000481;28;20554;-75
2021/12/12 02:48:17;;;;;;;4.38;2.63;;;3.90;99.90;;;;;;5011544;28;20673;-74
2021/12/12 02:50:49;;;;;;;3.28;2.35;;;3.80;99.90;;;;;;5006581;28;20317;-74
2021/12/12 02:53:19;;;;;;;4.43;2.65;;;3.80;99.90;;;;;;5004780;28;20218;-74
2021/12/12 02:55:51;;;;;;;5.05;2.58;;;3.80;99.90;;;;;;5009583;28;20666;-74
2021/12/12 02:58:20;;;;;;;5.55;2.53;;;3.90;99.90;;;;;;4996726;28;20192;-74
2021/12/12 03:00:54;;;;;;;4.93;2.33;;;3.90;99.90;;;;;;4996234;28;20222;-74
2021/12/12 03:03:21;;;;;;;3.45;2.35;;;4.00;99.90;;;;;;5009379;28;20697;-74
2021/12/12 03:05:49;;;;;;;3.08;2.50;;;3.90;99.90;;;;;;5009303;28;20210;-74
2021/12/12 03:08:16;;;;;;;4.03;2.90;;;3.80;99.90;;;;;;5011758;28;20198;-74
2021/12/12 03:10:48;;;;;;;5.05;2.80;;;3.70;99.90;;;;;;5008649;28;20226;-74
2021/12/12 03:13:15;;;;;;;5.20;2.88;;;3.70;99.90;;;;;;4997930;28;20311;-74
2021/12/12 03:15:46;;;;;;;2.65;2.15;;;3.70;99.90;;;;;;5003715;28;20289;-74
2021/12/12 03:18:17;;;;;;;5.43;2.85;;;3.70;99.90;;;;;;5008099;28;20198;-74
2021/12/12 03:20:47;;;;;;;4.10;3.30;;;3.70;99.90;;;;;;5010853;28;20199;-74
2021/12/12 03:23:19;;;;;;;4.22;2.90;;;3.70;99.90;;;;;;5001775;28;20218;-75
2021/12/12 03:25:52;;;;;;;4.10;3.10;;;3.80;99.90;;;;;;4998488;28;20805;-74
2021/12/12 03:28:23;;;;;;;3.45;3.00;;;3.80;99.90;;;;;;5000663;28;20221;-74
2021/12/12 03:30:52;;;;;;;5.63;3.90;;;3.80;99.90;;;;;;4991842;28;20230;-74
2021/12/12 03:33:19;;;;;;;5.07;4.10;;;3.80;99.90;;;;;;4997679;28;20635;-74
2021/12/12 03:35:49;;;;;;;7.20;4.35;;;3.80;99.90;;;;;;5005521;28;20281;-74
2021/12/12 03:38:17;;;;;;;5.28;4.60;;;3.70;99.90;;;;;;5002543;28;20206;-74
2021/12/12 03:40:45;;;;;;;5.30;4.35;;;3.60;99.90;;;;;;5004277;28;20198;-74
2021/12/12 03:43:15;;;;;;;6.38;5.28;;;3.60;99.90;;;;;;5004582;28;20777;-74
2021/12/12 03:45:44;;;;;;;8.20;4.95;;;3.60;99.90;;;;;;4992885;28;20694;-74
2021/12/12 03:48:14;;;;;;;6.72;4.75;;;3.50;99.90;;;;;;4991610;28;20203;-74
2021/12/12 03:50:44;;;;;;;5.60;5.10;;;3.50;99.90;;;;;;5000026;28;20224;-74
2021/12/12 03:53:12;;;;;;;6.00;5.03;;;3.40;99.90;;;;;;5001214;28;20300;-74
2021/12/12 03:55:39;;;;;;;6.15;5.07;;;3.40;99.90;;;;;;5000440;28;20288;-74
2021/12/12 03:58:08;;;;;;;8.85;5.80;;;3.40;99.90;;;;;;5007387;28;20224;-75
2021/12/12 04:00:42;;;;;;;5.60;4.78;;;3.40;99.90;;;;;;4993002;28;20290;-74
2021/12/12 04:03:10;;;;;;;7.97;4.80;;;3.30;99.90;;;;;;5004426;28;20223;-75
2021/12/12 04:05:38;;;;;;;7.30;4.57;;;3.40;99.90;;;;;;5004807;28;20293;-74
2021/12/12 04:08:06;;;;;;;7.13;5.57;;;3.40;99.90;;;;;;5005694;28;20213;-74
2021/12/12 04:10:33;;;;;;;6.60;5.82;;;3.40;99.90;;;;;;5012862;28;20230;-74
2021/12/12 04:13:00;;;;;;;5.43;4.82;;;3.30;99.90;;;;;;5010911;28;20219;-74
2021/12/12 04:15:27;;;;;;;5.43;4.70;;;3.20;99.90;;;;;;4995393;28;20264;-74
2021/12/12 04:17:56;;;;;;;6.40;5.80;;;3.20;99.90;;;;;;5003014;28;20217;-74
2021/12/12 04:20:26;;;;;;;5.93;5.32;;;3.10;99.90;;;;;;5007936;28;20240;-74
2021/12/12 04:22:53;;;;;;;5.00;4.50;;;3.00;99.90;;;;;;5004904;28;20214;-75
2021/12/12 04:25:20;;;;;;;5.88;5.05;;;3.00;99.90;;;;;;4995052;28;20214;-74
2021/12/12 04:27:47;;;;;;;8.50;5.72;;;3.00;99.90;;;;;;4994587;28;20199;-74
2021/12/12 04:30:16;;;;;;;7.05;5.22;;;3.00;99.90;;;;;;5003926;28;20794;-74
2021/12/12 04:32:45;;;;;;;8.95;6.32;;;3.00;99.90;;;;;;5004875;28;20214;-74
2021/12/12 04:35:26;;;;;;;9.63;6.28;;;2.90;99.90;;;;;;5009415;28;20214;-74
2021/12/12 04:37:53;;;;;;;6.70;5.38;;;2.90;99.90;;;;;;4996229;28;20203;-74
2021/12/12 04:40:25;;;;;;;5.35;4.85;;;3.00;99.90;;;;;;5012927;28;20547;-74
2021/12/12 04:42:54;;;;;;;5.20;4.70;;;3.00;99.90;;;;;;5005802;28;20221;-74
2021/12/12 04:45:31;;;;;;;5.28;4.75;;;3.00;99.90;;;;;;4994204;28;20199;-74
2021/12/12 04:50:56;;;;;;;5.72;4.65;;;3.00;99.90;;;;;;4994328;28;20229;-73
2021/12/12 04:53:27;;;;;;;5.88;4.38;;;3.00;99.90;;;;;;4998688;28;20225;-73
2021/12/12 04:55:59;;;;;;;7.20;4.60;;;2.90;99.90;;;;;;4993648;28;20195;-73
2021/12/12 04:58:35;;;;;;;5.22;4.65;;;2.90;99.90;;;;;;5006343;28;20218;-74
2021/12/12 05:01:06;;;;;;;5.78;4.60;;;2.90;99.90;;;;;;5012874;28;20191;-74
2021/12/12 05:03:42;;;;;;;6.35;5.30;;;2.80;99.90;;;;;;4997590;28;20223;-73
2021/12/12 05:06:16;;;;;;;7.85;4.70;;;2.80;99.90;;;;;;5009092;28;20199;-74
2021/12/12 05:08:49;;;;;;;5.40;4.85;;;2.80;99.90;;;;;;5008715;28;20190;-73
2021/12/12 05:11:23;;;;;;;5.43;4.18;;;2.80;99.90;;;;;;4993721;28;20215;-73
2021/12/12 05:13:54;;;;;;;6.25;4.30;;;2.80;99.90;;;;;;5002644;28;20630;-74
2021/12/12 05:16:25;;;;;;;5.25;4.40;;;2.80;99.90;;;;;;5007685;28;20194;-74
2021/12/12 05:19:01;;;;;;;6.00;4.45;;;2.80;99.90;;;;;;4995859;28;20576;-74
2021/12/12 05:21:33;;;;;;;7.97;4.40;;;2.80;99.90;;;;;;5005186;28;20195;-74
2021/12/12 05:24:04;;;;;;;5.45;4.95;;;2.90;99.90;;;;;;5010383;28;20202;-74
2021/12/12 05:26:34;;;;;;;5.03;4.53;;;2.80;99.90;;;;;;5008269;28;20213;-73
2021/12/12 05:29:04;;;;;;;5.07;4.22;;;2.90;99.90;;;;;;4995834;28;20191;-73
2021/12/12 05:31:34;;;;;;;4.95;4.28;;;2.80;99.90;;;;;;5001622;28;20219;-73
2021/12/12 05:34:02;;;;;;;7.50;5.20;;;2.80;99.90;;;;;;5009259;28;20199;-73
2021/12/12 05:36:34;;;;;;;4.60;3.90;;;2.70;99.90;;;;;;4999194;28;20195;-73
2021/12/12 05:39:03;;;;;;;4.88;4.47;;;2.60;99.90;;;;;;5002451;28;20270;-73
2021/12/12 05:41:30;;;;;;;6.35;5.20;;;2.60;99.90;;;;;;5012207;28;20258;-72
2021/12/12 05:43:58;;;;;;;5.45;4.95;;;2.50;99.90;;;;;;4997030;28;20670;-73
2021/12/12 05:46:26;;;;;;;6.60;4.90;;;2.50;99.90;;;;;;5006317;28;20646;-73
2021/12/12 05:48:54;;;;;;;5.90;4.97;;;2.50;99.90;;;;;;5006420;28;20200;-73
2021/12/12 05:51:22;;;;;;;8.13;4.75;;;2.40;99.90;;;;;;4994258;28;20571;-73
2021/12/12 05:53:52;;;;;;;5.03;4.50;;;2.40;99.90;;;;;;4992950;28;20194;-73
2021/12/12 05:56:23;;;;;;;6.10;4.72;;;2.30;99.90;;;;;;4998656;28;20202;-73
2021/12/12 05:58:50;;;;;;;5.18;4.47;;;2.30;99.90;;;;;;4997812;28;20195;-73
2021/12/12 06:01:18;;;;;;;5.00;4.50;;;2.30;99.90;;;;;;4996090;28;20301;-73
2021/12/12 06:03:47;;;;;;;5.82;5.30;;;2.20;99.90;;;;;;4992556;28;20199;-73
2021/12/12 06:06:18;;;;;;;4.82;4.38;;;2.20;99.90;;;;;;4998364;28;20202;-73
2021/12/12 06:08:46;;;;;;;5.13;4.55;;;2.20;99.90;;;;;;5006540;28;20199;-73
2021/12/12 06:11:20;;;;;;;6.47;4.93;;;2.10;99.90;;;;;;4995355;28;20227;-73
2021/12/12 06:13:48;;;;;;;5.13;4.63;;;2.20;99.90;;;;;;4992688;28;20554;-73
2021/12/12 06:16:21;;;;;;;5.72;5.18;;;2.40;99.90;;;;;;4993776;28;20654;-73
2021/12/12 06:18:52;;;;;;;6.38;4.70;;;2.20;99.90;;;;;;4995232;28;20195;-73
2021/12/12 06:21:19;;;;;;;5.07;4.57;;;2.20;99.90;;;;;;4992723;28;20195;-73
2021/12/12 06:23:46;;;;;;;5.50;4.43;;;2.20;99.90;;;;;;4992351;28;20677;-73
2021/12/12 06:26:16;;;;;;;5.43;4.53;;;2.20;99.90;;;;;;4995747;28;20650;-73
2021/12/12 06:28:43;;;;;;;6.25;5.30;;;2.20;99.90;;;;;;5011233;28;20201;-73
2021/12/12 06:31:11;;;;;;;5.25;4.75;;;2.20;99.90;;;;;;5005490;28;20218;-74
2021/12/12 06:33:39;;;;;;;5.88;4.80;;;2.20;99.90;;;;;;4998595;28;20221;-73
2021/12/12 06:36:06;;;;;;;6.28;5.00;;;2.20;99.90;;;;;;5005206;28;20274;-73
2021/12/12 06:38:35;;;;;;;5.38;4.97;;;2.20;99.90;;;;;;5002163;28;20203;-73
2021/12/12 06:41:03;;;;;;;6.05;5.45;;;2.20;99.90;;;;;;4994879;28;20596;-73
2021/12/12 06:43:31;;;;;;;5.93;5.32;;;2.20;99.90;;;;;;5010968;28;20334;-73
2021/12/12 06:46:00;;;;;;;7.43;5.63;;;2.10;99.90;;;;;;5002972;28;20757;-73
2021/12/12 06:48:28;;;;;;;5.43;4.80;;;2.10;99.90;;;;;;4993256;28;20647;-73
2021/12/12 06:50:57;;;;;;;7.90;5.55;;;2.00;99.90;;;;;;5000599;28;20313;-73
2021/12/12 06:53:26;;;;;;;7.00;5.10;;;2.00;99.90;;;;;;4991631;28;20225;-73
2021/12/12 06:55:54;;;;;;;5.38;4.88;;;1.90;99.90;;;;;;4995016;28;20199;-73
2021/12/12 06:58:22;;;;;;;5.28;4.78;;;1.90;99.90;;;;;;5005683;28;20199;-73
2021/12/12 07:00:56;;;;;;;6.90;5.55;;;1.90;99.90;;;;;;5008667;28;20199;-73
2021/12/12 07:03:24;;;;;;;5.50;5.00;;;1.90;99.90;;;;;;4998037;28;20234;-73
2021/12/12 07:05:52;;;;;;;5.65;5.00;;;1.90;99.90;;;;;;5002486;28;20322;-74
2021/12/12 07:08:21;;;;;;;5.95;5.47;;;1.90;99.90;;;;;;4998466;28;20212;-73
2021/12/12 07:10:48;;;;;;;6.10;5.50;;;1.80;99.90;;;;;;5007633;28;20693;-73
2021/12/12 07:13:17;;;;;;;5.40;4.90;;;1.90;99.90;;;;;;5001798;28;20225;-74
2021/12/12 07:15:52;;;;;;;5.93;5.35;;;1.90;99.90;;;;;;5000046;28;20933;-74
2021/12/12 07:18:24;;;;;;;5.75;5.20;;;2.00;99.90;;;;;;5003189;28;20657;-73
2021/12/12 07:20:53;;;;;;;6.28;5.30;;;2.00;99.90;;;;;;5003571;28;20931;-74
2021/12/12 07:23:20;;;;;;;5.38;4.88;;;2.10;99.90;;;;;;5002303;28;20289;-74
2021/12/12 07:25:48;;;;;;;6.05;5.45;;;2.10;99.90;;;;;;4997691;28;20216;-73
2021/12/12 07:28:16;;;;;;;5.72;5.22;;;2.20;99.90;;;;;;5002889;28;20287;-73
2021/12/12 07:30:44;;;;;;;5.97;5.30;;;2.20;99.90;;;;;;5003102;28;20326;-73
2021/12/12 07:33:11;;;;;;;5.90;5.40;;;2.30;99.90;;;;;;4998627;28;20219;-73
2021/12/12 07:35:43;;;;;;;5.20;4.80;;;2.30;99.90;;;;;;5002177;28;20199;-74
2021/12/12 07:38:13;;;;;;;5.88;5.15;;;2.30;99.90;;;;;;5002375;28;20199;-73
2021/12/12 07:40:40;;;;;;;5.88;5.38;;;2.30;99.90;;;;;;4996472;28;20210;-73
2021/12/12 07:43:07;;;;;;;5.75;5.25;;;2.30;99.90;;;;;;4993673;28;20578;-73
2021/12/12 07:45:35;;;;;;;6.82;6.22;;;2.30;99.90;;;;;;4994028;28;20278;-73
2021/12/12 07:48:03;;;;;;;6.55;5.40;;;2.30;99.90;;;;;;4997288;28;20206;-74
2021/12/12 07:50:30;;;;;;;5.90;5.30;;;2.30;99.90;;;;;;5003359;28;20252;-75
2021/12/12 07:52:59;;;;;;;5.65;5.05;;;2.30;99.90;;;;;;4988427;28;20229;-74
2021/12/12 07:55:27;;;;;;;5.30;4.90;;;2.40;99.90;;;;;;4998163;28;20197;-74
2021/12/12 07:57:54;;;;;;;5.95;5.45;;;2.40;99.90;;;;;;4996563;28;20230;-73
2021/12/12 08:00:24;;;;;;;5.32;4.80;;;2.50;99.90;;;;;;5006149;28;20195;-73
2021/12/12 08:02:52;;;;;;;5.95;5.45;;;2.50;99.90;;;;;;5000943;28;20226;-73
2021/12/12 08:05:20;;;;;;;5.38;4.80;;;2.60;99.90;;;;;;4996865;28;20202;-74
2021/12/12 08:07:48;;;;;;;6.07;4.97;;;2.70;99.90;;;;;;4997348;28;20187;-74
2021/12/12 08:10:18;;;;;;;4.78;4.38;;;2.80;99.90;;;;;;4997678;28;20207;-74
2021/12/12 08:12:45;;;;;;;5.00;4.20;;;2.90;99.90;;;;;;4992343;28;20310;-74
2021/12/12 08:15:14;;;;;;;4.32;3.92;;;3.00;99.90;;;;;;5006627;28;20199;-73
2021/12/12 08:17:43;;;;;;;4.85;4.18;;;3.20;99.90;;;;;;4997167;28;20215;-74
2021/12/12 08:20:13;;;;;;;5.18;4.00;;;3.30;99.90;;;;;;5002838;28;20194;-73
2021/12/12 08:22:41;;;;;;;3.83;3.53;;;3.50;99.90;;;;;;4999543;28;20234;-74
2021/12/12 08:25:11;;;;;;;3.95;3.65;;;3.60;99.90;;;;;;4992590;28;20198;-73
2021/12/12 08:27:39;;;;;;;4.88;4.30;;;3.70;99.90;;;;;;4993405;28;20314;-73
2021/12/12 08:30:08;;;;;;;3.58;3.35;;;3.70;99.90;;;;;;5000257;28;21713;-73
2021/12/12 08:32:35;;;;;;;3.88;3.50;;;3.60;99.90;;;;;;5006537;28;20234;-84
2021/12/12 08:35:04;;;;;;;3.85;3.55;;;3.60;99.90;;;;;;5000592;28;20202;-82
2021/12/12 08:37:31;;;;;;;3.50;3.10;;;3.60;99.90;;;;;;5007653;28;20650;-81
2021/12/12 08:39:59;;;;;;;3.53;3.22;;;3.60;99.90;;;;;;4991875;28;20317;-78
2021/12/12 08:42:27;;;;;;;3.30;3.00;;;3.60;99.90;;;;;;4990456;28;20239;-78
2021/12/12 08:44:56;;;;;;;2.92;2.63;;;3.60;99.90;;;;;;4994015;28;20199;-78
2021/12/12 08:47:24;;;;;;;3.28;3.00;;;3.60;99.90;;;;;;4996471;28;20242;-79
2021/12/12 08:49:51;;;;;;;3.60;3.30;;;3.60;99.90;;;;;;4999660;28;21160;-79
2021/12/12 08:52:22;;;;;;;3.30;3.00;;;3.60;99.90;;;;;;5002229;28;20231;-79
2021/12/12 08:54:53;;;;;;;3.28;2.97;;;3.70;99.90;;;;;;5002604;28;20194;-78
2021/12/12 08:57:32;;;;;;;2.85;2.65;;;3.80;99.90;;;;;;5008935;28;20194;-78
2021/12/12 09:00:01;;;;;;;3.75;3.42;;;3.90;99.90;;;;;;5008132;28;20276;-78
2021/12/12 09:02:29;;;;;;;3.20;2.90;;;4.00;99.90;;;;;;5003974;28;20226;-79
2021/12/12 09:05:01;;;;;;;3.03;2.80;;;4.10;99.90;;;;;;5007479;28;20211;-79
2021/12/12 09:07:34;;;;;;;3.47;2.80;;;4.20;99.90;;;;;;5008142;28;20194;-79
2021/12/12 09:10:06;;;;;;;2.60;2.40;;;4.20;99.90;;;;;;4998843;28;20213;-78
2021/12/12 09:12:38;;;;;;;2.40;2.30;;;4.40;99.90;;;;;;4996843;28;20334;-79
2021/12/12 09:15:15;;;;;;;3.28;2.97;;;4.50;99.90;;;;;;5003292;28;20665;-78
2021/12/12 09:17:46;;;;;;;2.80;2.60;;;4.60;99.90;;;;;;5002285;28;20268;-79
2021/12/12 09:20:18;;;;;;;2.97;2.75;;;4.60;99.90;;;;;;5002415;28;21295;-84
2021/12/12 09:22:56;;;;;;;2.85;2.53;;;4.60;99.90;;;;;;5006352;28;20222;-79
2021/12/12 09:25:37;;;;;;;3.30;2.53;;;4.60;99.90;;;;;;5002418;28;20206;-79
2021/12/12 09:28:09;;;;;;;2.53;2.33;;;4.60;99.90;;;;;;5000935;28;20273;-76
2021/12/12 09:30:38;;;;;;;3.65;2.75;;;4.60;99.90;;;;;;5005055;28;20214;-77
2021/12/12 09:33:12;;;;;;;2.65;2.45;;;4.70;99.90;;;;;;4997946;28;20326;-79
2021/12/12 09:35:46;;;;;;;2.20;2.00;;;4.80;99.90;;;;;;5004993;28;20201;-78
2021/12/12 09:38:25;;;;;;;3.00;2.30;;;4.90;99.90;;;;;;4998410;28;20199;-78
2021/12/12 09:41:23;;;;;;;2.60;2.40;;;5.00;99.90;;;;;;4993492;28;20199;-79
2021/12/12 09:44:24;;;;;;;2.67;2.47;;;5.10;99.90;;;;;;5000656;28;20194;-77
2021/12/12 09:47:25;;;;;;;2.60;2.40;;;5.30;99.90;;;;;;5006755;28;20249;-79
2021/12/12 09:53:22;;;;;;;2.85;2.20;;;6.00;99.90;;;;;;4984814;28;20253;-80
2021/12/12 09:55:54;;;;;;;2.40;2.20;;;6.60;99.90;;;;;;4991399;28;20643;-79
2021/12/12 09:58:28;;;;;;;2.30;2.10;;;6.80;99.90;;;;;;4993856;28;20195;-79
2021/12/12 10:01:01;;;;;;;2.10;1.90;;;6.70;99.90;;;;;;4999468;28;20196;-80
2021/12/12 10:03:44;;;;;;;2.45;2.20;;;6.60;99.90;;;;;;5007299;28;20282;-79
2021/12/12 10:06:17;;;;;;;2.50;2.30;;;6.40;99.90;;;;;;5006789;28;20274;-78
2021/12/12 10:08:59;;;;;;;2.50;2.30;;;6.30;99.90;;;;;;5003731;28;20621;-79
2021/12/12 10:11:36;;;;;;;2.50;2.40;;;6.10;99.90;;;;;;4996871;28;20222;-80
2021/12/12 10:14:07;;;;;;;2.85;2.22;;;6.10;99.90;;;;;;4999343;28;20240;-79
2021/12/12 10:16:39;;;;;;;2.10;1.90;;;6.10;99.90;;;;;;5000347;28;20194;-79
2021/12/12 10:19:20;;;;;;;2.47;2.28;;;6.10;99.90;;;;;;5001672;28;20198;-79
2021/12/12 10:21:57;;;;;;;2.30;2.08;;;5.90;99.90;;;;;;5006385;28;20229;-80
2021/12/12 10:24:30;;;;;;;2.55;2.15;;;5.80;99.90;;;;;;5000499;28;20214;-80
2021/12/12 10:27:04;;;;;;;2.22;1.85;;;5.60;99.90;;;;;;5009076;28;20295;-79
2021/12/12 10:29:37;;;;;;;3.03;2.13;;;5.60;99.90;;;;;;4997879;28;20664;-79
2021/12/12 10:32:12;;;;;;;2.47;2.28;;;5.60;99.90;;;;;;4993819;28;20581;-80
2021/12/12 10:34:46;;;;;;;2.22;2.05;;;5.60;99.90;;;;;;5001116;28;20202;-80
2021/12/12 10:37:19;;;;;;;2.05;1.95;;;5.50;99.90;;;;;;4999565;28;20198;-79
2021/12/12 10:39:50;;;;;;;2.55;1.98;;;5.50;99.90;;;;;;4996893;28;20298;-80
2021/12/12 10:42:19;;;;;;;3.55;1.90;;;5.50;99.90;;;;;;4997803;28;20223;-79
2021/12/12 10:44:49;;;;;;;1.50;1.40;;;5.70;99.90;;;;;;5004236;28;20198;-78
2021/12/12 10:47:20;;;;;;;1.85;1.75;;;5.70;99.90;;;;;;5000366;28;20210;-79
2021/12/12 10:50:07;;;;;;;2.13;2.00;;;5.80;99.90;;;;;;4993204;28;20268;-79
2021/12/12 10:52:40;;;;;;;2.60;1.70;;;5.80;99.90;;;;;;4994157;28;20241;-79
2021/12/12 10:55:10;;;;;;;1.70;1.60;;;6.00;99.90;;;;;;4996077;28;20208;-80
2021/12/12 10:57:39;;;;;;;1.90;1.60;;;6.10;99.90;;;;;;5002536;28;20198;-79
2021/12/12 11:00:11;;;;;;;2.22;1.58;;;6.10;99.90;;;;;;5004724;28;20215;-79
2021/12/12 11:03:02;;;;;;;1.70;1.60;;;6.10;99.90;;;;;;4996228;28;21251;-78
2021/12/12 11:05:33;;;;;;;3.10;1.73;;;6.30;99.90;;;;;;4997702;28;20198;-78
2021/12/12 11:08:07;;;;;;;2.05;1.85;;;6.40;99.90;;;;;;4996110;28;20194;-89
2021/12/12 11:10:37;;;;;;;3.10;1.55;;;6.50;99.90;;;;;;4999929;28;20209;-80
2021/12/12 11:13:09;;;;;;;1.85;1.75;;;6.60;99.90;;;;;;5000257;28;20589;-78
2021/12/12 11:15:41;;;;;;;2.70;1.80;;;6.70;99.90;;;;;;4998853;28;20279;-77
2021/12/12 11:18:12;;;;;;;2.03;1.92;;;6.70;99.90;;;;;;4995058;28;20195;-78
2021/12/12 11:20:42;;;;;;;2.08;1.70;;;6.80;99.90;;;;;;4999343;28;20197;-78
2021/12/12 11:23:16;;;;;;;3.03;2.00;;;6.80;99.90;;;;;;4995967;28;20203;-78
2021/12/12 11:25:47;;;;;;;2.10;1.45;;;6.90;99.90;;;;;;4992184;28;21040;-79
2021/12/12 11:28:21;;;;;;;2.75;2.00;;;6.90;99.90;;;;;;5006784;28;20198;-88
2021/12/12 11:30:53;;;;;;;2.15;1.65;;;7.10;99.90;;;;;;4999141;28;20217;-88
2021/12/12 11:33:22;;;;;;;1.85;1.70;;;7.20;99.90;;;;;;4995959;28;20720;-82
2021/12/12 11:35:53;;;;;;;2.03;1.65;;;7.10;99.90;;;;;;4987659;28;20203;-81
2021/12/12 11:38:35;;;;;;;2.38;1.85;;;7.10;99.90;;;;;;4996742;28;20292;-82
2021/12/12 11:41:09;;;;;;;1.77;1.67;;;7.20;99.90;;;;;;4997716;28;20245;-82
2021/12/12 11:43:42;;;;;;;2.33;1.80;;;7.20;99.90;;;;;;4996226;28;20203;-76
2021/12/12 11:46:14;;;;;;;3.97;1.80;;;7.20;99.90;;;;;;4995383;28;20664;-75
2021/12/12 11:48:55;;;;;;;2.03;1.50;;;7.20;99.90;;;;;;5002026;28;20198;-76
2021/12/12 11:51:31;;;;;;;2.05;1.42;;;7.20;99.90;;;;;;4996966;28;20290;-75
2021/12/12 11:54:09;;;;;;;1.70;1.55;;;7.20;99.90;;;;;;4993736;28;20281;-75
2021/12/12 11:56:45;;;;;;;2.70;1.50;;;7.20;99.90;;;;;;5006162;28;20206;-76
2021/12/12 11:59:17;;;;;;;1.70;1.52;;;7.20;99.90;;;;;;4993751;28;20269;-75
2021/12/12 12:01:54;;;;;;;3.03;1.60;;;7.30;99.90;;;;;;5002006;28;20678;-75
2021/12/12 12:04:37;;;;;;;2.60;1.65;;;7.40;99.90;;;;;;4999472;28;20195;-75
2021/12/12 12:07:12;;;;;;;3.65;1.83;;;7.50;99.90;;;;;;5006866;28;20217;-74
2021/12/12 12:09:49;;;;;;;3.22;1.60;;;7.60;99.90;;;;;;4996205;28;20257;-75
2021/12/12 12:12:33;;;;;;;1.55;1.35;;;7.80;99.90;;;;;;4997862;28;20238;-75
2021/12/12 12:15:10;;;;;;;3.22;1.60;;;7.90;99.90;;;;;;4996992;28;20794;-75
2021/12/12 12:17:47;;;;;;;1.45;1.35;;;7.70;99.90;;;;;;4999304;28;20217;-73
2021/12/12 12:20:23;;;;;;;2.55;1.85;;;7.80;99.90;;;;;;5002936;28;20199;-71
2021/12/12 12:22:59;;;;;;;2.67;1.92;;;7.90;99.90;;;;;;4999411;28;20229;-73
2021/12/12 12:26:50;;;;;;;4.30;1.77;;;7.90;99.90;;;;;;5002778;28;20219;-74
2021/12/12 12:28:29;;;;;;;2.70;1.60;;;8.00;99.90;;;;;;4994697;28;20187;-75
2021/12/12 12:31:33;;;;;;;2.78;1.50;;;8.20;99.90;;;;;;5003286;28;20230;-75
2021/12/12 12:34:44;;;;;;;3.83;1.90;;;8.20;99.90;;;;;;4996950;28;20218;-75
2021/12/12 12:37:44;;;;;;;2.15;1.70;;;8.30;99.90;;;;;;4990092;28;20297;-75
2021/12/12 12:41:00;;;;;;;3.20;2.45;;;8.30;99.90;;;;;;4996222;28;20324;-75
2021/12/12 12:44:12;;;;;;;2.80;1.60;;;8.20;99.90;;;;;;4997938;28;20286;-76
2021/12/12 12:47:13;;;;;;;4.53;1.80;;;8.10;99.90;;;;;;4996374;28;20226;-75
2021/12/12 12:50:17;;;;;;;4.18;3.75;;;7.90;99.90;;;;;;4993407;28;21026;-75
2021/12/12 12:53:27;;;;;;;3.17;1.35;;;7.70;99.90;;;;;;4997629;28;20237;-75
2021/12/12 12:56:15;;;;;;;2.97;2.20;;;7.60;99.90;;;;;;4993990;28;20198;-75
2021/12/12 12:59:06;;;;;;;6.40;3.63;;;7.70;99.90;;;;;;4997615;28;20241;-75
2021/12/12 13:01:40;;;;;;;3.40;2.20;;;7.80;99.90;;;;;;4997147;28;20241;-76
2021/12/12 13:04:21;;;;;;;3.28;2.40;;;7.90;99.90;;;;;;4995343;28;20590;-75
2021/12/12 13:07:09;;;;;;;2.50;2.28;;;8.00;99.90;;;;;;4988212;28;20566;-75
2021/12/12 13:09:46;;;;;;;2.25;1.70;;;8.10;99.90;;;;;;5008801;28;20203;-75
2021/12/12 13:12:43;;;;;;;2.70;2.42;;;8.00;99.90;;;;;;4997260;28;20222;-75
2021/12/12 13:15:22;;;;;;;3.47;2.15;;;8.20;99.90;;;;;;5002570;28;20201;-75
2021/12/12 13:18:01;;;;;;;1.77;1.40;;;8.20;99.90;;;;;;5000908;28;20201;-75
2021/12/12 13:20:36;;;;;;;4.30;1.50;;;8.20;99.90;;;;;;5001554;28;20223;-75
2021/12/12 13:23:17;;;;;;;3.35;2.85;;;8.20;99.90;;;;;;5002975;28;20206;-75
2021/12/12 13:25:50;;;;;;;2.10;1.60;;;8.10;99.90;;;;;;5005020;28;20199;-75
2021/12/12 13:28:30;;;;;;;2.40;1.73;;;8.10;99.90;;;;;;4994325;28;20199;-75
2021/12/12 13:31:02;;;;;;;2.05;1.85;;;8.00;99.90;;;;;;4992323;28;20227;-74
2021/12/12 13:33:35;;;;;;;2.55;1.70;;;7.90;99.90;;;;;;4995559;28;20227;-75
2021/12/12 13:36:17;;;;;;;2.58;1.80;;;7.90;99.90;;;;;;4997457;28;20253;-75
2021/12/12 13:38:53;;;;;;;2.63;2.15;;;7.80;99.90;;;;;;5007568;28;20202;-75
2021/12/12 13:41:28;;;;;;;2.53;1.80;;;7.70;99.90;;;;;;5000433;28;20223;-77
2021/12/12 13:44:04;;;;;;;2.70;2.40;;;7.80;99.90;;;;;;4994235;28;20199;-76